Latest Coastal Weather Observations for Taree Airport

IDN60701

Issued at 1:41 am EST Thursday 29 June 2017 (issued every 10 minutes, with the page automatically refreshed every 10 minutes)

About coastal observations | Map of coastal stations | Coastal observations for NSW | Marine services | Other Formats
Station Details ID: 060141 Name: TAREE AIRPORT AWS Lat: -31.89 Lon: 152.51 Height: 8.0 m
Data from the previous 72 hours. | See also: Recent months at Taree Airport
Date/Time
EST
Temp
°C
Wind Pressure Rain since
9am
mm
Weather Cloud Vis
km
Sea
Height
m
Swell
Dir  Spd
kts
Gust
kts
hPa Trend Height
m
Period
s
Dir
29/01:30am 12.6 CALM 0 0 1020.2 - 4.0 - Cloudy 10 - - - -
29/01:00am 12.8 WSW 4 5 1020.6 - 4.0 - Cloudy 10 - - - -
29/12:48am 12.8 W 2 5 1020.8 - 4.0 - Cloudy 10 - - - -
29/12:32am 12.6 CALM 0 0 1020.7 - 4.0 - Cloudy 5 - - - -
29/12:30am 12.6 CALM 0 0 1020.6 - 4.0 - Cloudy 7 - - - -
29/12:27am 12.7 CALM 0 0 1020.6 - 4.0 - Cloudy 10 - - - -
29/12:00am 12.4 NNE 2 4 1020.8 - 4.0 - Cloudy 3 - - - -
 
Date/Time
EST
Temp
°C
Wind Pressure Rain since
9am
mm
Weather Cloud Vis
km
Sea
Height
m
Swell
Dir  Spd
kts
Gust
kts
hPa Trend Height
m
Period
s
Dir
28/11:30pm 12.5 NNW 1 4 1021.3 - 4.0 - Partly cloudy 3 - - - -
28/11:26pm 12.4 CALM 0 0 1021.3 - 4.0 - Partly cloudy 5 - - - -
28/11:00pm 12.9 NNE 4 4 1021.5 - 4.0 - Partly cloudy 10 - - - -
28/10:30pm 13.1 SW 5 6 1021.7 - 4.0 - Cloudy 10 - - - -
28/10:00pm 13.2 WSW 4 5 1021.9 - 4.0 - Cloudy 9 - - - -
28/09:30pm 13.2 WSW 5 7 1021.9 - 3.8 - Cloudy 9 - - - -
28/09:00pm 13.0 CALM 0 0 1021.9 - 3.8 Rain Mostly cloudy 10 - - - -
28/08:30pm 13.4 WNW 6 7 1022.1 - 3.8 - Partly cloudy 10 - - - -
28/08:03pm 13.5 WNW 5 6 1022.0 - 3.8 - Partly cloudy 10 - - - -
28/08:00pm 13.6 W 5 7 1022.1 - 3.6 - Partly cloudy 10 - - - -
28/07:44pm 13.7 WSW 6 8 1022.3 - 2.8 - Partly cloudy 5 - - - -
28/07:30pm 13.8 WSW 6 7 1022.2 - 2.2 - Cloudy 10 - - - -
28/07:00pm 13.8 CALM 0 0 1021.9 - 2.2 - Cloudy 10 - - - -
28/06:30pm 13.8 CALM 0 0 1021.7 - 2.0 - Cloudy 10 - - - -
28/06:00pm 14.1 CALM 0 0 1021.7 - 2.0 Rain Cloudy 10 - - - -
28/05:30pm 14.2 WNW 3 5 1021.7 - 2.0 - Cloudy 10 - - - -
28/05:00pm 14.3 WNW 2 5 1021.6 - 1.8 - Cloudy 9 - - - -
28/04:30pm 14.4 SW 4 5 1021.0 - 1.8 - Cloudy 10 - - - -
28/04:00pm 14.5 WSW 3 4 1021.3 - 1.6 - Partly cloudy 10 - - - -
28/03:30pm 14.6 SW 5 6 1021.2 - 1.6 - Partly cloudy 10 - - - -
28/03:00pm 14.7 N 1 3 1021.0 - 1.6 Showers Cloudy 10 - - - -
28/02:30pm 14.9 ENE 1 4 1020.7 - 1.4 - Partly cloudy 10 - - - -
28/02:00pm 14.6 CALM 0 0 1021.0 - 1.4 - Partly cloudy 10 - - - -
28/01:30pm 14.4 WSW 3 5 1021.6 - 0.8 - Partly cloudy 9 - - - -
28/01:00pm 14.3 CALM 0 4 1021.6 - 0.4 - Partly cloudy 10 - - - -
28/12:30pm 14.3 WSW 2 5 1021.8 - 0.0 - Cloudy 10 - - - -
28/12:00pm 14.5 W 5 6 1022.1 - 0.0 Showers Partly cloudy 10 - - - -
28/11:30am 14.4 WSW 5 6 1022.6 - 0.0 - Partly cloudy 10 - - - -
28/11:00am 14.2 WNW 4 5 1023.0 - 0.0 - Partly cloudy 10 - - - -
28/10:30am 13.7 WSW 4 5 1023.4 - 0.0 - Cloudy 10 - - - -
28/10:00am 13.4 SW 6 7 1023.8 - 0.0 - Cloudy 10 - - - -
28/09:30am 13.1 WSW 2 4 1023.5 - 0.0 - Cloudy 10 - - - -
28/09:00am 12.4 SW 3 4 1024.0 - 1.8 Rain Cloudy 10 - - - -
28/08:30am 12.4 CALM 0 0 1024.1 - 1.8 - Partly cloudy 10 - - - -
28/08:00am 11.6 CALM 0 3 1024.1 - 1.6 - Partly cloudy 10 - - - -
28/07:30am 11.5 W 4 5 1024.2 - 1.6 - Cloudy 10 - - - -
28/07:00am 11.3 WNW 4 5 1024.0 - 1.4 - Cloudy 10 - - - -
28/06:30am 11.2 NNE 3 4 1023.4 - 1.4 - Partly cloudy 10 - - - -
28/06:00am 11.3 W 4 6 1023.7 - 1.0 Rain Cloudy 10 - - - -
28/05:30am 11.3 W 4 5 1023.4 - 0.8 - Cloudy 10 - - - -
28/05:00am 11.0 NNW 4 7 1023.4 - 0.6 - Cloudy 10 - - - -
28/04:30am 11.2 CALM 0 0 1023.0 - 0.6 - Partly cloudy 10 - - - -
28/04:00am 11.3 WNW 3 4 1023.3 - 0.4 - Partly cloudy 10 - - - -
28/03:30am 11.4 WSW 4 5 1023.5 - 0.2 - Partly cloudy 10 - - - -
28/03:00am 11.5 WNW 4 6 1023.7 - 0.2 Rain Cloudy 10 - - - -
28/02:30am 11.5 WNW 4 5 1023.6 - 0.2 - Partly cloudy 10 - - - -
28/02:00am 11.2 CALM 0 0 1023.7 - 0.2 - Partly cloudy 10 - - - -
28/01:30am 11.2 NW 2 4 1023.8 - 0.2 - Partly cloudy 10 - - - -
28/01:00am 11.3 CALM 0 5 1023.9 - 0.2 - Partly cloudy 10 - - - -
28/12:30am 11.6 SW 3 4 1023.3 - 0.2 - Cloudy 10 - - - -
28/12:00am 11.6 WSW 4 6 1024.2 - 0.2 - Cloudy 10 - - - -
 
Date/Time
EST
Temp
°C
Wind Pressure Rain since
9am
mm
Weather Cloud Vis
km
Sea
Height
m
Swell
Dir  Spd
kts
Gust
kts
hPa Trend Height
m
Period
s
Dir
27/11:30pm 11.2 W 4 5 1024.5 - 0.2 - Partly cloudy 10 - - - -
27/11:00pm 10.0 CALM 0 0 1023.9 - 0.2 - Cloudy 10 - - - -
27/10:35pm 10.6 CALM 0 0 1024.0 - 0.2 - Partly cloudy 10 - - - -
27/10:30pm 10.5 CALM 0 0 1023.9 - 0.2 - Partly cloudy 10 - - - -
27/10:20pm 10.2 CALM 0 0 1023.9 - 0.2 - Partly cloudy 5 - - - -
27/10:00pm 11.0 CALM 0 0 1024.3 - 0.2 - - 10 - - - -
27/09:30pm 11.8 CALM 0 0 1024.6 - 0.2 - - 10 - - - -
27/09:00pm 12.1 W 3 4 1024.8 - 0.2 - Cloudy 10 - - - -
27/08:30pm 12.2 W 3 4 1024.7 - 0.2 - - 10 - - - -
27/08:00pm 12.2 WSW 3 3 1024.6 - 0.2 - - 10 - - - -
27/07:30pm 12.3 NW 1 3 1024.5 - 0.2 - - 10 - - - -
27/07:00pm 12.5 CALM 0 0 1024.6 - 0.2 - - 10 - - - -
27/06:30pm 12.2 NW 1 4 1024.3 - 0.2 - - 10 - - - -
27/06:00pm 13.3 CALM 0 0 1024.1 - 0.2 - Cloudy 10 - - - -
27/05:30pm 14.2 NNW 3 4 1023.9 - 0.2 - - 10 - - - -
27/05:00pm 14.5 CALM 0 0 1023.8 - 0.2 - - 10 - - - -
27/04:30pm 15.3 CALM 0 0 1023.8 - 0.2 - - 10 - - - -
27/04:00pm 15.9 ESE 3 5 1023.9 - 0.2 - - 10 - - - -
27/03:30pm 16.5 ESE 5 6 1023.9 - 0.2 - - 10 - - - -
27/03:00pm 17.1 E 3 4 1023.8 - 0.2 - Cloudy 10 - - - -
27/02:30pm 18.0 N 3 5 1023.9 - 0.2 - - 10 - - - -
27/02:00pm 18.3 NE 4 6 1024.0 - 0.2 - - 10 - - - -
27/01:30pm 18.1 E 2 5 1024.3 - 0.2 - - 10 - - - -
27/01:00pm 18.7 SE 4 5 1024.4 - 0.2 - - 10 - - - -
27/12:30pm 17.8 SSW 3 5 1024.8 - 0.2 - - 10 - - - -
27/12:00pm 17.3 WSW 5 7 1025.4 - 0.2 Rain - 10 - - - -
27/11:30am 16.1 W 6 8 1025.7 - 0.0 - - 10 - - - -
27/11:00am 15.1 WSW 7 9 1026.1 - 0.0 - - 10 - - - -
27/10:30am 14.4 WSW 6 8 1026.2 - 0.0 - - 10 - - - -
27/10:00am 13.4 W 8 10 1026.3 - 0.0 - - 10 - - - -
27/09:30am 12.3 W 6 9 1026.4 - 0.0 - - 10 - - - -
27/09:00am 11.0 W 7 8 1026.4 - 0.0 - - 10 - - - -
27/08:30am 9.9 WNW 5 7 1026.2 - 0.0 - - 10 - - - -
27/08:00am 8.7 W 6 7 1026.0 - 0.0 - - 10 - - - -
27/07:30am 8.1 W 7 9 1025.6 - 0.0 - - 10 - - - -
27/07:00am 7.5 WNW 4 6 1025.6 - 0.0 - - 10 - - - -
27/06:30am 7.4 WSW 7 9 1025.5 - 0.0 - - 10 - - - -
27/06:00am 7.0 W 4 6 1025.3 - 0.0 - - 10 - - - -
27/05:30am 7.1 WNW 4 5 1025.3 - 0.0 - - 10 - - - -
27/05:00am 7.6 WSW 6 7 1025.0 - 0.0 - - 10 - - - -
27/04:30am 7.2 W 4 6 1025.1 - 0.0 - Partly cloudy 10 - - - -
27/04:00am 7.5 W 5 8 1024.9 - 0.0 - Partly cloudy 10 - - - -
27/03:30am 7.6 WSW 6 7 1024.8 - 0.0 - - 10 - - - -
27/03:00am 7.4 W 5 7 1025.1 - 0.0 - - 10 - - - -
27/02:30am 7.4 NW 4 5 1025.1 - 0.0 - - 10 - - - -
27/02:00am 7.6 WSW 5 6 1024.7 - 0.0 - - 10 - - - -
27/01:30am 8.1 W 5 6 1024.7 - 0.0 - - 10 - - - -
27/01:00am 7.9 WSW 1 5 1024.6 - 0.0 - - 10 - - - -
27/12:30am 7.7 WSW 5 6 1024.9 - 0.0 - - 10 - - - -
27/12:00am 7.8 W 4 5 1025.0 - 0.0 - - 10 - - - -
 
Date/Time
EST
Temp
°C
Wind Pressure Rain since
9am
mm
Weather Cloud Vis
km
Sea
Height
m
Swell
Dir  Spd
kts
Gust
kts
hPa Trend Height
m
Period
s
Dir
26/11:30pm 8.2 W 4 5 1025.1 - 0.0 - - 10 - - - -
26/11:00pm 8.5 W 5 6 1025.2 - 0.0 - - 10 - - - -
26/10:30pm 8.5 CALM 0 0 1025.0 - 0.0 - - 10 - - - -
26/10:00pm 8.9 WNW 2 4 1024.9 - 0.0 - - 10 - - - -
26/09:30pm 8.5 CALM 0 0 1024.8 - 0.0 - - 10 - - - -
26/09:00pm 9.7 WNW 3 7 1024.5 - 0.0 - - 10 - - - -
26/08:30pm 9.8 WNW 4 5 1024.4 - 0.0 - - 10 - - - -
26/08:00pm 10.0 NW 5 6 1024.4 - 0.0 - - 10 - - - -
26/07:30pm 10.6 WNW 4 5 1024.1 - 0.0 - - 10 - - - -
26/07:00pm 10.9 NNW 4 5 1023.6 - 0.0 - - 10 - - - -
26/06:30pm 11.4 S 4 5 1023.1 - 0.0 - - 10 - - - -
26/06:00pm 13.5 S 4 5 1022.6 - 0.0 - - 10 - - - -
26/05:30pm 13.9 SSE 6 7 1022.1 - 0.0 - - 10 - - - -
26/05:00pm 14.8 SE 5 7 1021.6 - 0.0 - - 10 - - - -
26/04:30pm 16.1 SSE 7 9 1021.3 - 0.0 - - 10 - - - -
26/04:00pm 17.2 SSE 8 10 1021.1 - 0.0 - - 10 - - - -
26/03:30pm 18.0 S 7 9 1020.9 - 0.0 - - 10 - - - -
26/03:00pm 18.6 SSW 6 9 1020.8 - 0.0 - - 10 - - - -
26/02:30pm 18.7 SSW 7 10 1020.5 - 0.0 - - 10 - - - -
26/02:00pm 18.7 SSW 8 10 1020.4 - 0.0 - - 10 - - - -
26/01:30pm 18.6 WSW 7 11 1020.6 - 0.0 - - 10 - - - -
26/01:00pm 18.4 SW 10 14 1020.7 - 0.0 - - 10 - - - -
26/12:30pm 18.4 WSW 9 13 1020.9 - 0.0 - - 10 - - - -
26/12:00pm 18.0 SW 11 15 1021.1 - 0.0 - - 10 - - - -
26/11:30am 18.0 SW 11 16 1021.5 - 0.0 - - 10 - - - -
26/11:00am 17.6 WSW 8 14 1021.9 - 0.0 - - 10 - - - -
26/10:30am 16.4 WSW 6 9 1022.2 - 0.0 - - 10 - - - -
26/10:00am 15.6 WSW 6 9 1022.4 - 0.0 - - 10 - - - -
26/09:30am 15.1 WNW 7 9 1022.4 - 0.0 - - 10 - - - -
26/09:00am 12.9 W 5 7 1022.2 - 0.0 - - 10 - - - -
26/08:30am 11.4 WSW 5 7 1021.8 - 0.0 - - 10 - - - -
26/08:00am 9.9 W 5 6 1021.5 - 0.0 - - 10 - - - -
26/07:30am 7.8 CALM 0 0 1021.1 - 0.0 - - 10 - - - -
26/07:00am 7.4 NNW 3 4 1020.4 - 0.0 - - 10 - - - -
26/06:30am 9.0 WNW 5 6 1020.1 - 0.0 - - 10 - - - -
26/06:00am 9.2 W 5 6 1019.6 - 0.0 - - 10 - - - -
26/05:30am 9.0 WNW 5 6 1019.2 - 0.0 - Partly cloudy 10 - - - -
26/05:00am 9.0 W 4 5 1019.2 - 0.0 - Partly cloudy 10 - - - -
26/04:30am 8.0 CALM 0 0 1018.9 - 0.0 - Partly cloudy 10 - - - -
26/04:00am 7.8 CALM 0 0 1019.0 - 0.0 - Partly cloudy 10 - - - -
26/03:30am 8.4 WNW 4 5 1018.7 - 0.0 - Partly cloudy 10 - - - -
26/03:00am 7.7 CALM 0 0 1018.9 - 0.0 - Cloudy 10 - - - -
26/02:30am 7.1 CALM 0 0 1018.9 - 0.0 - Partly cloudy 10 - - - -
26/02:00am 6.9 CALM 0 0 1018.7 - 0.0 - Partly cloudy 10 - - - -

Other Formats:

Comma delimited format used in spreadsheet applications
http://www.bom.gov.au/fwo/IDN60701/IDN60701.95784.axf

JavaScript Object Notation format (JSON) in row-major order
http://www.bom.gov.au/fwo/IDN60701/IDN60701.95784.json